Main page
METAR-TAF:

METAR-TAF

Airports :

Heidrun oil field

Heidrun, Norway

latitude: 65-19-30N, longitude: 007-19-36E, elevation: 0 m

Current weather observation

The report was made 33 minutes ago, at 17:50 UTC
Wind 10 kt from the West/Northwest
Temperature 14°C
Humidity 72%
Pressure 1016 hPa
Visibility 10 km or more
Few clouds at a height of 2000 ft, Towering cumulus.
Scattered clouds at a height of 4500 ft
Broken clouds at a height of 14000 ft

METAR: ENHE 231750Z 29010KT 9999 FEW020TCU SCT045 BKN140 14/09 Q1016 W///S3

Time: 20:23 (18:23 UTC)

Forecast

The report was made 1 hour and 23 minutes ago, at 17:00 UTC
Forecast valid from 23 at 18 UTC to 24 at 03 UTC
Wind 10 kt from the West/Northwest
Visibility 10 km or more
Few clouds at a height of 1500 ft, Towering cumulus.
Scattered clouds at a height of 3500 ft

TAF: ENHE 231700Z 2318/2403 30010KT 9999 FEW015TCU SCT035

Weather observations and forecasts of more than 4000 airports (METAR and TAF reports).

The available stations are represented by yellow and red dots on the map.

Hover mouse over dot to see the name of the station.

Then click to see weather observations and forecasts.

To change the map : click on the green buttons with a black cross to zoom in, on the green button with a dash to zoom out, or on the green arrows for adjacent maps.


METAR-TAF: